Time;durP1;ratioP1;P1;durP2;ratioP2;P2;SDS_P1;SDS_P2;PMS_P1;PMS_P2;Temp;Humidity;BMP_temperature;BMP_pressure;BME280_temperature;BME280_humidity;BME280_pressure;Samples;Min_cycle;Max_cycle;Signal;HPM_P1;HPM_P2
2022/10/24 00:01:45;;;;;;;4.15;1.15;;;16.50;87.40;;;;;;5000038;28;20034;-63
2022/10/24 00:04:11;;;;;;;3.85;1.20;;;16.50;87.40;;;;;;5004232;28;20042;-63
2022/10/24 00:06:36;;;;;;;2.83;1.17;;;16.50;87.40;;;;;;5021504;28;20033;-63
2022/10/24 00:09:02;;;;;;;2.30;1.00;;;16.50;87.40;;;;;;5013869;28;20545;-63
2022/10/24 00:11:28;;;;;;;3.90;1.25;;;16.50;87.60;;;;;;4998155;28;20033;-62
2022/10/24 00:13:55;;;;;;;3.40;0.98;;;16.40;87.60;;;;;;5014228;28;20038;-63
2022/10/24 00:16:21;;;;;;;3.22;1.17;;;16.50;87.80;;;;;;5021701;28;20026;-62
2022/10/24 00:18:47;;;;;;;3.25;1.17;;;16.40;87.70;;;;;;5024822;28;20544;-62
2022/10/24 00:21:12;;;;;;;4.03;1.05;;;16.50;87.80;;;;;;5017812;28;20026;-61
2022/10/24 00:23:38;;;;;;;5.45;1.20;;;16.50;87.90;;;;;;4997874;28;20058;-62
2022/10/24 00:26:05;;;;;;;4.40;1.23;;;16.50;87.80;;;;;;5002715;28;20034;-61
2022/10/24 00:28:34;;;;;;;4.40;1.30;;;16.50;88.00;;;;;;5001177;28;20022;-62
2022/10/24 00:31:00;;;;;;;4.65;1.20;;;16.50;88.80;;;;;;4996993;28;20038;-61
2022/10/24 00:33:26;;;;;;;4.13;1.38;;;16.50;88.00;;;;;;4996800;28;20049;-63
2022/10/24 00:35:52;;;;;;;2.60;1.10;;;16.50;88.00;;;;;;4998905;28;20044;-63
2022/10/24 00:38:18;;;;;;;8.75;1.30;;;16.50;88.00;;;;;;5001137;28;20070;-61
2022/10/24 00:40:44;;;;;;;3.35;1.20;;;16.50;88.10;;;;;;4997719;28;20211;-62
2022/10/24 00:43:14;;;;;;;5.15;1.20;;;16.50;88.10;;;;;;5001498;28;20062;-62
2022/10/24 00:45:43;;;;;;;3.13;1.30;;;16.50;88.30;;;;;;5000101;28;20042;-63
2022/10/24 00:48:36;;;;;;;6.47;1.20;;;16.50;88.10;;;;;;5002395;28;20042;-61
2022/10/24 00:51:12;;;;;;;4.72;1.38;;;16.50;88.50;;;;;;5014754;28;20071;-60
2022/10/24 00:53:44;;;;;;;4.38;1.23;;;16.50;88.30;;;;;;4992290;28;21491;-63
2022/10/24 00:56:12;;;;;;;4.60;1.30;;;16.50;88.10;;;;;;5002866;28;20084;-61
2022/10/24 00:58:38;;;;;;;4.63;1.17;;;16.50;88.00;;;;;;5001740;28;20048;-63
2022/10/24 01:01:04;;;;;;;4.65;1.50;;;16.50;88.00;;;;;;4997678;28;20120;-61
2022/10/24 01:03:31;;;;;;;5.80;1.13;;;16.40;88.00;;;;;;5013486;28;20049;-62
2022/10/24 01:06:18;;;;;;;4.18;1.20;;;16.40;88.00;;;;;;5000188;28;20092;-61
2022/10/24 01:09:01;;;;;;;6.03;1.13;;;16.40;88.40;;;;;;5000661;28;20121;-62
2022/10/24 01:11:32;;;;;;;5.35;1.20;;;16.40;88.30;;;;;;5016314;28;20532;-61
2022/10/24 01:14:23;;;;;;;6.68;1.85;;;16.40;88.30;;;;;;5020446;28;20128;-62
2022/10/24 01:17:04;;;;;;;7.75;1.38;;;16.40;88.50;;;;;;5000069;28;20037;-61
2022/10/24 01:19:51;;;;;;;3.47;1.15;;;16.40;88.10;;;;;;5006119;28;20092;-62
2022/10/24 01:22:23;;;;;;;3.95;1.27;;;16.40;88.30;;;;;;4999748;28;20113;-63
2022/10/24 01:25:06;;;;;;;5.68;1.60;;;16.50;88.20;;;;;;5000038;28;20033;-63
2022/10/24 01:27:47;;;;;;;4.88;1.40;;;16.50;88.30;;;;;;5011393;28;20115;-62
2022/10/24 01:30:15;;;;;;;6.13;1.17;;;16.50;88.10;;;;;;5000635;28;20510;-61
2022/10/24 01:32:47;;;;;;;2.20;1.05;;;16.50;88.10;;;;;;5015707;28;20509;-63
2022/10/24 01:35:21;;;;;;;4.55;1.25;;;16.50;88.10;;;;;;5013210;28;20034;-60
2022/10/24 01:37:54;;;;;;;4.28;1.33;;;16.50;88.10;;;;;;4997247;28;20037;-63
2022/10/24 01:40:31;;;;;;;4.35;1.20;;;16.50;88.10;;;;;;4999350;28;20038;-62
2022/10/24 01:43:02;;;;;;;3.55;1.00;;;16.60;88.10;;;;;;5019527;28;20427;-63
2022/10/24 01:45:33;;;;;;;3.38;1.02;;;16.60;88.00;;;;;;5017261;28;20037;-63
2022/10/24 01:48:02;;;;;;;4.55;1.25;;;16.60;88.00;;;;;;5019720;28;20042;-62
2022/10/24 01:50:30;;;;;;;4.68;1.10;;;16.60;87.80;;;;;;5017559;28;20088;-63
2022/10/24 01:52:57;;;;;;;5.43;1.30;;;16.60;87.80;;;;;;5019090;28;20098;-62
2022/10/24 01:55:23;;;;;;;12.48;1.50;;;16.70;87.80;;;;;;5009162;28;20033;-62
2022/10/24 01:57:49;;;;;;;2.33;1.30;;;16.70;87.60;;;;;;4998380;28;20039;-62
2022/10/24 02:00:20;;;;;;;3.13;1.15;;;16.70;87.60;;;;;;5004203;28;20041;-61
2022/10/24 02:02:51;;;;;;;3.33;1.20;;;16.70;87.50;;;;;;5005581;28;20140;-60
2022/10/24 02:05:25;;;;;;;3.65;1.27;;;16.70;87.40;;;;;;5024797;28;20059;-63
2022/10/24 02:07:55;;;;;;;6.38;1.20;;;16.80;87.40;;;;;;5012403;28;20062;-61
2022/10/24 02:10:38;;;;;;;6.72;1.40;;;16.80;87.30;;;;;;5005361;28;20421;-63
2022/10/24 02:13:28;;;;;;;5.93;1.25;;;16.80;87.40;;;;;;5005252;28;20188;-61
2022/10/24 02:15:58;;;;;;;4.25;1.05;;;16.80;87.30;;;;;;5003434;28;20745;-61
2022/10/24 02:18:23;;;;;;;4.40;1.05;;;16.80;87.20;;;;;;5001467;28;20046;-61
2022/10/24 02:21:04;;;;;;;3.70;1.13;;;16.80;87.10;;;;;;5024598;28;20033;-63
2022/10/24 02:23:36;;;;;;;2.58;1.00;;;16.90;87.10;;;;;;5012833;28;20037;-63
2022/10/24 02:26:05;;;;;;;6.28;1.30;;;16.90;87.10;;;;;;4999218;28;20030;-62
2022/10/24 02:28:39;;;;;;;3.63;1.33;;;16.90;87.10;;;;;;4994327;28;20042;-62
2022/10/24 02:31:16;;;;;;;2.35;0.90;;;16.90;87.10;;;;;;5021462;28;20080;-63
2022/10/24 02:33:44;;;;;;;5.60;1.40;;;16.90;87.10;;;;;;5016517;28;20037;-62
2022/10/24 02:36:13;;;;;;;6.32;1.27;;;16.90;87.00;;;;;;5003435;28;20049;-62
2022/10/24 02:38:43;;;;;;;4.70;1.20;;;17.10;87.10;;;;;;4998705;28;20050;-63
2022/10/24 02:41:14;;;;;;;4.88;1.13;;;16.90;86.90;;;;;;4999028;28;20042;-62
2022/10/24 02:43:43;;;;;;;2.83;0.98;;;17.00;87.10;;;;;;5000854;28;20030;-62
2022/10/24 02:46:11;;;;;;;4.85;1.55;;;17.00;87.00;;;;;;5017510;28;20048;-64
2022/10/24 02:48:42;;;;;;;4.30;1.08;;;17.00;86.90;;;;;;5021107;28;20056;-64
2022/10/24 02:51:08;;;;;;;4.60;1.40;;;17.00;87.00;;;;;;5018073;28;20058;-63
2022/10/24 02:53:35;;;;;;;2.50;1.10;;;17.00;87.00;;;;;;5001178;28;20042;-63
2022/10/24 02:56:01;;;;;;;3.65;1.00;;;16.90;87.10;;;;;;5002835;28;20052;-63
2022/10/24 02:58:27;;;;;;;4.40;1.40;;;16.90;87.30;;;;;;5016041;28;20492;-63
2022/10/24 03:00:52;;;;;;;6.55;1.60;;;16.90;87.20;;;;;;5002913;28;20034;-62
2022/10/24 03:03:18;;;;;;;4.38;1.17;;;16.90;87.20;;;;;;5003255;28;20056;-63
2022/10/24 03:05:43;;;;;;;6.05;1.20;;;16.90;87.20;;;;;;5003948;28;20045;-62
2022/10/24 03:08:10;;;;;;;4.82;1.20;;;16.90;87.30;;;;;;5002464;28;20041;-63
2022/10/24 03:10:35;;;;;;;4.45;1.70;;;16.90;87.20;;;;;;4998698;28;20037;-63
2022/10/24 03:13:02;;;;;;;6.13;1.50;;;16.90;87.30;;;;;;5005231;28;20034;-63
2022/10/24 03:15:28;;;;;;;8.07;1.92;;;16.90;87.30;;;;;;5001870;28;20045;-64
2022/10/24 03:17:53;;;;;;;4.63;1.30;;;16.90;87.30;;;;;;5006295;28;20042;-63
2022/10/24 03:20:19;;;;;;;5.47;1.40;;;16.90;87.40;;;;;;5007693;28;20362;-61
2022/10/24 03:22:44;;;;;;;4.68;1.33;;;16.90;87.30;;;;;;5001257;28;20478;-64
2022/10/24 03:25:10;;;;;;;4.15;1.27;;;16.90;87.30;;;;;;5002025;28;20041;-62
2022/10/24 03:27:37;;;;;;;6.85;1.70;;;16.90;87.30;;;;;;5001109;28;20037;-64
2022/10/24 03:30:03;;;;;;;6.85;1.33;;;16.90;87.30;;;;;;5001553;28;20057;-64
2022/10/24 03:32:29;;;;;;;5.75;1.60;;;16.90;87.30;;;;;;5000432;28;20041;-64
2022/10/24 03:34:55;;;;;;;5.95;1.45;;;16.90;87.40;;;;;;5001866;28;20034;-64
2022/10/24 03:37:20;;;;;;;5.50;1.63;;;16.90;87.30;;;;;;5004267;28;20046;-62
2022/10/24 03:39:46;;;;;;;7.00;1.75;;;16.90;87.40;;;;;;4998710;28;20042;-64
2022/10/24 03:42:12;;;;;;;5.10;1.48;;;16.80;87.40;;;;;;5004908;28;20493;-64
2022/10/24 03:44:37;;;;;;;7.68;1.75;;;16.80;87.60;;;;;;5000729;28;20034;-64
2022/10/24 03:47:03;;;;;;;7.20;1.52;;;16.80;87.70;;;;;;5003378;28;20049;-63
2022/10/24 03:49:28;;;;;;;5.53;2.00;;;16.80;87.80;;;;;;5001764;28;20092;-62
2022/10/24 03:51:54;;;;;;;3.67;1.45;;;16.70;87.80;;;;;;5002394;28;20040;-63
2022/10/24 03:54:20;;;;;;;8.30;1.80;;;16.80;88.00;;;;;;5003298;28;20342;-63
2022/10/24 03:56:48;;;;;;;6.68;1.75;;;16.80;88.80;;;;;;5016816;28;20459;-63
2022/10/24 03:59:14;;;;;;;9.88;1.88;;;16.70;88.00;;;;;;5018253;28;20405;-63
2022/10/24 04:01:40;;;;;;;3.40;1.67;;;16.70;88.00;;;;;;5011314;28;20037;-64
2022/10/24 04:04:05;;;;;;;7.90;1.88;;;16.80;88.10;;;;;;5023949;28;20040;-63
2022/10/24 04:06:31;;;;;;;6.65;1.50;;;16.70;88.10;;;;;;5003952;28;20038;-63
2022/10/24 04:08:57;;;;;;;7.53;1.83;;;16.70;88.10;;;;;;5016458;28;20046;-62
2022/10/24 04:11:23;;;;;;;6.90;1.65;;;16.70;88.00;;;;;;4999999;28;20034;-62
2022/10/24 04:13:49;;;;;;;5.28;1.83;;;16.70;88.10;;;;;;5001499;28;20049;-64
2022/10/24 04:16:16;;;;;;;5.80;1.63;;;16.70;88.10;;;;;;5001708;28;20497;-63
2022/10/24 04:18:42;;;;;;;4.35;1.65;;;16.70;88.20;;;;;;5003749;28;20038;-63
2022/10/24 04:21:08;;;;;;;6.13;1.67;;;16.70;88.30;;;;;;5007026;28;20037;-64
2022/10/24 04:23:39;;;;;;;7.95;2.35;;;16.70;88.30;;;;;;5000276;28;20046;-64
2022/10/24 04:26:08;;;;;;;12.38;2.55;;;16.70;88.40;;;;;;5000781;28;20441;-64
2022/10/24 04:28:34;;;;;;;7.93;1.95;;;16.60;88.40;;;;;;4998600;28;20030;-62
2022/10/24 04:30:59;;;;;;;6.57;2.08;;;16.60;88.50;;;;;;5020857;28;20041;-63
2022/10/24 04:33:25;;;;;;;6.38;1.90;;;16.60;88.50;;;;;;5014844;28;20125;-64
2022/10/24 04:35:51;;;;;;;10.18;2.13;;;16.60;88.60;;;;;;5002765;28;20396;-63
2022/10/24 04:38:17;;;;;;;6.28;2.05;;;16.50;88.60;;;;;;5004268;28;20219;-63
2022/10/24 04:40:51;;;;;;;10.13;1.70;;;16.50;88.60;;;;;;5003536;28;20117;-64
2022/10/24 04:43:18;;;;;;;7.68;1.80;;;16.50;88.80;;;;;;5019695;28;20038;-64
2022/10/24 04:45:44;;;;;;;6.20;1.83;;;16.50;88.60;;;;;;5010909;28;20057;-64
2022/10/24 04:48:09;;;;;;;7.63;1.98;;;16.50;88.80;;;;;;5001079;28;20467;-64
2022/10/24 04:50:35;;;;;;;6.47;1.58;;;16.50;88.80;;;;;;5019059;28;20448;-63
2022/10/24 04:53:01;;;;;;;3.63;1.30;;;16.40;88.80;;;;;;5005986;28;20041;-64
2022/10/24 04:55:26;;;;;;;7.20;1.92;;;16.40;88.80;;;;;;5004985;28;20042;-64
2022/10/24 04:57:52;;;;;;;4.70;1.20;;;16.40;88.80;;;;;;5004406;28;20034;-63
2022/10/24 05:00:18;;;;;;;5.90;1.58;;;16.40;88.90;;;;;;5017363;28;20038;-63
2022/10/24 05:02:44;;;;;;;3.47;1.10;;;16.40;89.00;;;;;;5001066;28;20034;-63
2022/10/24 05:05:09;;;;;;;2.83;1.02;;;16.40;89.00;;;;;;5002674;28;20053;-64
2022/10/24 05:07:35;;;;;;;8.93;5.55;;;16.40;89.00;;;;;;5000260;28;20034;-64
2022/10/24 05:10:02;;;;;;;7.60;1.80;;;16.40;88.90;;;;;;5004553;28;20034;-63
2022/10/24 05:12:28;;;;;;;9.07;2.22;;;16.40;89.00;;;;;;4998435;28;20034;-64
2022/10/24 05:14:53;;;;;;;5.88;2.33;;;16.40;88.90;;;;;;5002975;28;20048;-63
2022/10/24 05:17:19;;;;;;;7.43;3.38;;;16.40;88.90;;;;;;5005625;28;20050;-63
2022/10/24 05:19:44;;;;;;;6.05;1.60;;;16.40;89.00;;;;;;5007349;28;20052;-63
2022/10/24 05:22:10;;;;;;;6.97;1.33;;;16.30;89.00;;;;;;5004262;28;20377;-63
2022/10/24 05:24:36;;;;;;;4.80;1.20;;;16.30;89.00;;;;;;4999051;28;20030;-64
2022/10/24 05:27:01;;;;;;;5.18;1.40;;;16.30;89.00;;;;;;5005037;28;20089;-62
2022/10/24 05:29:27;;;;;;;5.03;1.27;;;16.30;89.00;;;;;;5015065;28;20113;-59
2022/10/24 05:31:52;;;;;;;3.88;1.38;;;16.30;89.00;;;;;;5014574;28;20103;-61
2022/10/24 05:34:18;;;;;;;4.55;1.20;;;16.30;89.20;;;;;;5007593;28;20045;-63
2022/10/24 05:36:44;;;;;;;5.65;1.25;;;16.30;89.10;;;;;;5003588;28;20048;-63
2022/10/24 05:39:09;;;;;;;4.82;1.30;;;16.30;89.10;;;;;;5002020;28;20078;-62
2022/10/24 05:41:35;;;;;;;4.75;1.40;;;16.20;89.10;;;;;;5001943;28;20053;-62
2022/10/24 05:44:00;;;;;;;6.18;1.13;;;16.20;89.30;;;;;;5002029;28;20169;-63
2022/10/24 05:46:26;;;;;;;6.43;1.58;;;16.20;89.40;;;;;;5002864;28;20033;-63
2022/10/24 05:48:51;;;;;;;3.65;1.50;;;16.20;89.40;;;;;;5004671;28;20037;-63
2022/10/24 05:51:17;;;;;;;3.25;1.00;;;16.20;89.50;;;;;;5003657;28;20500;-63
2022/10/24 05:53:43;;;;;;;3.63;1.10;;;16.20;89.50;;;;;;5003387;28;20026;-63
2022/10/24 05:56:09;;;;;;;2.38;1.30;;;16.10;89.50;;;;;;5002636;28;20421;-63
2022/10/24 05:58:34;;;;;;;5.75;1.23;;;16.10;89.60;;;;;;5000825;28;20058;-63
2022/10/24 06:01:00;;;;;;;3.85;1.10;;;16.10;89.70;;;;;;5000338;28;20030;-63
2022/10/24 06:03:26;;;;;;;3.22;1.10;;;16.10;89.80;;;;;;5001976;28;20026;-64
2022/10/24 06:05:51;;;;;;;4.82;1.35;;;16.10;89.90;;;;;;5000671;28;20033;-64
2022/10/24 06:08:17;;;;;;;3.20;1.60;;;16.10;90.00;;;;;;5005806;28;20524;-64
2022/10/24 06:10:47;;;;;;;3.85;1.27;;;16.10;90.00;;;;;;5001006;28;20034;-64
2022/10/24 06:13:13;;;;;;;5.15;1.10;;;16.10;90.10;;;;;;5016922;28;20042;-63
2022/10/24 06:15:41;;;;;;;3.60;1.55;;;16.10;90.00;;;;;;5001592;28;20045;-63
2022/10/24 06:18:06;;;;;;;3.78;1.83;;;16.10;90.10;;;;;;5020258;28;20076;-63
2022/10/24 06:20:32;;;;;;;4.85;3.85;;;16.10;90.20;;;;;;5027068;28;20053;-63
2022/10/24 06:22:57;;;;;;;6.22;2.15;;;16.10;90.20;;;;;;5008223;28;20041;-62
2022/10/24 06:25:23;;;;;;;5.05;1.40;;;16.10;90.20;;;;;;5004040;28;20505;-63
2022/10/24 06:27:49;;;;;;;5.22;1.77;;;16.10;90.10;;;;;;5004422;28;20590;-63
2022/10/24 06:30:14;;;;;;;5.30;1.48;;;16.10;90.00;;;;;;5004602;28;20042;-63
2022/10/24 06:32:40;;;;;;;6.18;2.53;;;16.10;90.00;;;;;;5005148;28;20046;-63
2022/10/24 06:35:06;;;;;;;3.88;1.65;;;16.10;90.00;;;;;;5004894;28;20096;-63
2022/10/24 06:37:32;;;;;;;4.07;1.60;;;16.10;90.00;;;;;;5006430;28;20051;-64
2022/10/24 06:39:58;;;;;;;5.75;1.20;;;16.10;90.00;;;;;;5008413;28;20048;-64
2022/10/24 06:42:24;;;;;;;4.63;1.17;;;16.10;90.10;;;;;;5001610;28;20076;-64
2022/10/24 06:44:50;;;;;;;5.47;1.27;;;16.10;90.10;;;;;;5022954;28;20033;-63
2022/10/24 06:47:16;;;;;;;4.57;1.35;;;16.10;90.20;;;;;;5004558;28;20092;-63
2022/10/24 06:49:41;;;;;;;5.47;1.48;;;16.10;90.20;;;;;;5006505;28;20048;-64
2022/10/24 06:52:07;;;;;;;5.78;2.35;;;16.10;90.20;;;;;;5004087;28;20069;-64
2022/10/24 06:54:34;;;;;;;7.85;3.25;;;16.10;90.60;;;;;;5008220;28;20045;-63
2022/10/24 06:56:59;;;;;;;5.32;2.30;;;16.10;90.20;;;;;;5005402;28;20056;-62
2022/10/24 06:59:25;;;;;;;7.07;1.98;;;16.10;90.20;;;;;;5006637;28;20553;-63
2022/10/24 07:01:51;;;;;;;6.88;2.70;;;16.20;90.20;;;;;;5007394;28;20129;-64
2022/10/24 07:04:17;;;;;;;4.95;1.58;;;16.30;90.20;;;;;;5004776;28;20038;-63
2022/10/24 07:06:43;;;;;;;6.70;1.45;;;16.20;90.20;;;;;;5004829;28;20041;-64
2022/10/24 07:09:11;;;;;;;6.25;1.70;;;16.20;90.20;;;;;;5004918;28;20097;-64
2022/10/24 07:11:36;;;;;;;4.90;1.17;;;16.20;90.20;;;;;;5002403;28;20034;-64
2022/10/24 07:14:02;;;;;;;5.68;1.58;;;16.20;90.10;;;;;;5004087;28;20378;-63
2022/10/24 07:16:28;;;;;;;5.72;1.80;;;16.20;90.10;;;;;;5004611;28;20548;-63
2022/10/24 07:18:54;;;;;;;4.95;1.30;;;16.30;90.20;;;;;;5005720;28;20048;-63
2022/10/24 07:21:24;;;;;;;7.05;1.67;;;16.30;90.20;;;;;;5008189;28;20042;-64
2022/10/24 07:23:51;;;;;;;4.20;1.27;;;16.20;90.20;;;;;;5008506;28;20421;-64
2022/10/24 07:26:17;;;;;;;8.10;1.52;;;16.30;90.20;;;;;;5002232;28;20042;-64
2022/10/24 07:28:45;;;;;;;6.50;1.45;;;16.30;90.20;;;;;;5003237;28;20088;-64
2022/10/24 07:31:13;;;;;;;5.60;1.60;;;16.30;90.20;;;;;;5002886;28;20045;-63
2022/10/24 07:33:40;;;;;;;3.42;1.30;;;16.30;90.20;;;;;;5005452;28;20037;-63
2022/10/24 07:36:06;;;;;;;5.28;1.38;;;16.30;90.30;;;;;;5002137;28;20045;-63
2022/10/24 07:38:31;;;;;;;8.10;1.98;;;16.30;90.30;;;;;;5004370;28;20088;-63
2022/10/24 07:40:57;;;;;;;5.75;1.50;;;16.30;90.30;;;;;;5006139;28;20034;-62
2022/10/24 07:43:23;;;;;;;4.93;1.60;;;16.40;90.30;;;;;;5005092;28;20429;-62
2022/10/24 07:45:49;;;;;;;4.38;1.38;;;16.30;90.30;;;;;;5004565;28;20504;-63
2022/10/24 07:48:15;;;;;;;5.35;1.65;;;16.30;90.30;;;;;;5004823;28;20037;-63
2022/10/24 07:50:43;;;;;;;3.28;1.10;;;16.40;90.40;;;;;;5004553;28;20041;-63
2022/10/24 07:53:10;;;;;;;5.35;2.00;;;16.40;90.40;;;;;;5011355;28;20046;-63
2022/10/24 07:55:40;;;;;;;6.68;2.00;;;16.40;90.70;;;;;;5014102;28;20536;-62
2022/10/24 07:58:07;;;;;;;4.43;1.83;;;16.40;90.30;;;;;;5003000;28;20417;-64
2022/10/24 08:00:33;;;;;;;10.38;5.03;;;16.40;90.20;;;;;;5020332;28;20049;-64
2022/10/24 08:02:59;;;;;;;10.82;4.15;;;16.40;90.20;;;;;;5000294;28;20041;-63
2022/10/24 08:05:24;;;;;;;20.40;9.98;;;16.50;90.20;;;;;;5015114;28;20026;-63
2022/10/24 08:07:50;;;;;;;27.40;12.18;;;16.50;90.10;;;;;;5023837;28;20037;-63
2022/10/24 08:10:16;;;;;;;12.25;5.82;;;16.50;90.10;;;;;;5011690;28;20037;-63
2022/10/24 08:12:41;;;;;;;7.57;2.65;;;16.50;90.10;;;;;;5017510;28;20102;-62
2022/10/24 08:15:07;;;;;;;3.88;2.03;;;16.50;90.00;;;;;;5003813;28;20065;-63
2022/10/24 08:17:35;;;;;;;5.80;2.00;;;16.50;90.00;;;;;;5005096;28;20037;-63
2022/10/24 08:20:01;;;;;;;7.80;1.90;;;16.60;90.00;;;;;;5008936;28;20254;-62
2022/10/24 08:22:26;;;;;;;7.25;2.58;;;16.60;90.00;;;;;;5007634;28;20066;-63
2022/10/24 08:24:52;;;;;;;7.45;2.35;;;16.60;90.00;;;;;;5003583;28;20390;-63
2022/10/24 08:27:17;;;;;;;8.85;3.40;;;16.60;90.00;;;;;;5003604;28;20037;-64
2022/10/24 08:29:43;;;;;;;6.85;2.75;;;16.70;90.00;;;;;;5002579;28;20026;-64
2022/10/24 08:32:08;;;;;;;6.75;1.95;;;16.70;90.10;;;;;;5003220;28;20037;-63
2022/10/24 08:34:34;;;;;;;4.82;1.42;;;16.70;90.10;;;;;;5021426;28;20508;-63
2022/10/24 08:37:00;;;;;;;4.15;1.35;;;16.70;90.10;;;;;;5017207;28;20195;-63
2022/10/24 08:39:25;;;;;;;6.88;2.42;;;16.80;90.00;;;;;;5002601;28;20034;-63
2022/10/24 08:41:57;;;;;;;6.03;2.13;;;16.80;90.00;;;;;;5004323;28;20409;-62
2022/10/24 08:44:25;;;;;;;4.07;1.40;;;16.80;90.00;;;;;;5001518;28;20041;-63
2022/10/24 08:47:01;;;;;;;3.35;1.30;;;16.80;90.00;;;;;;5003283;28;20046;-62
2022/10/24 08:49:44;;;;;;;2.15;1.20;;;16.80;89.90;;;;;;5003592;28;20034;-64
2022/10/24 08:52:47;;;;;;;5.63;1.40;;;16.80;89.90;;;;;;5002405;28;20634;-62
2022/10/24 08:55:27;;;;;;;3.30;1.30;;;16.80;90.00;;;;;;5027108;28;20041;-62
2022/10/24 08:57:56;;;;;;;6.72;1.60;;;16.80;90.00;;;;;;5016650;28;20037;-63
2022/10/24 09:00:27;;;;;;;6.50;1.90;;;16.70;89.90;;;;;;5007160;28;20037;-62
2022/10/24 09:03:02;;;;;;;9.13;1.80;;;16.80;90.00;;;;;;5025934;28;20060;-63
2022/10/24 09:05:36;;;;;;;6.07;1.65;;;16.80;90.00;;;;;;5018836;28;20115;-63
2022/10/24 09:08:12;;;;;;;6.15;1.85;;;16.80;90.00;;;;;;5006929;28;20576;-62
2022/10/24 09:10:45;;;;;;;3.75;1.05;;;16.70;90.00;;;;;;5007484;28;20041;-63
2022/10/24 09:13:13;;;;;;;4.00;1.60;;;16.70;89.90;;;;;;5021623;28;20045;-63
2022/10/24 09:15:41;;;;;;;5.50;1.48;;;16.70;89.90;;;;;;5008280;28;20453;-62
2022/10/24 09:18:27;;;;;;;6.07;1.40;;;16.80;90.00;;;;;;5008633;28;20030;-62
2022/10/24 09:20:54;;;;;;;5.00;1.60;;;16.70;90.00;;;;;;5026624;28;20104;-63
2022/10/24 09:23:22;;;;;;;4.50;1.60;;;16.80;90.00;;;;;;5020808;28;20985;-64
2022/10/24 09:25:51;;;;;;;4.50;1.20;;;16.80;90.00;;;;;;5027762;28;20428;-64
2022/10/24 09:28:17;;;;;;;3.20;1.35;;;16.80;90.00;;;;;;5027930;28;20041;-64
2022/10/24 09:30:44;;;;;;;2.90;1.05;;;16.80;89.90;;;;;;5024279;28;20030;-63
2022/10/24 09:33:31;;;;;;;2.92;0.80;;;16.80;89.70;;;;;;5016785;28;20042;-62
2022/10/24 09:36:00;;;;;;;3.40;1.00;;;16.90;89.50;;;;;;5001719;28;20584;-63
2022/10/24 09:38:35;;;;;;;3.50;0.98;;;16.90;89.30;;;;;;5001655;28;20734;-64
2022/10/24 09:41:06;;;;;;;3.42;1.20;;;16.90;89.20;;;;;;5007814;28;20452;-64
2022/10/24 09:43:49;;;;;;;5.28;1.08;;;16.90;89.30;;;;;;5024680;28;20033;-64
2022/10/24 09:46:25;;;;;;;3.72;1.20;;;16.80;89.30;;;;;;5006355;28;20583;-64
2022/10/24 09:49:18;;;;;;;2.95;0.98;;;16.90;89.40;;;;;;5021902;28;20055;-64
2022/10/24 09:51:59;;;;;;;2.55;1.10;;;16.80;89.30;;;;;;5021451;28;20664;-64
2022/10/24 09:54:28;;;;;;;5.85;2.00;;;16.80;89.40;;;;;;5020386;28;20088;-64
2022/10/24 09:56:54;;;;;;;4.00;1.20;;;16.80;89.50;;;;;;5016972;28;20095;-63
2022/10/24 09:59:28;;;;;;;4.32;1.27;;;16.80;89.60;;;;;;5002330;28;20436;-63
2022/10/24 10:02:13;;;;;;;6.55;1.60;;;16.80;89.80;;;;;;5001943;28;20544;-63
2022/10/24 10:04:40;;;;;;;5.57;1.10;;;16.80;89.90;;;;;;5002083;28;20026;-62
2022/10/24 10:07:15;;;;;;;3.03;1.27;;;16.80;89.80;;;;;;5003617;28;20069;-63
2022/10/24 10:09:53;;;;;;;2.63;0.98;;;16.80;89.80;;;;;;5001538;28;20038;-63
2022/10/24 10:12:33;;;;;;;4.30;1.27;;;16.80;89.80;;;;;;5015384;28;20575;-63
2022/10/24 10:15:01;;;;;;;4.15;1.00;;;16.90;89.70;;;;;;5022072;28;20536;-63
2022/10/24 10:17:30;;;;;;;3.80;1.60;;;16.90;89.50;;;;;;5017284;28;20034;-64
2022/10/24 10:19:57;;;;;;;3.75;1.02;;;16.90;89.40;;;;;;5006657;28;20034;-64
2022/10/24 10:22:26;;;;;;;6.65;1.35;;;16.90;89.30;;;;;;5020970;28;20041;-64
2022/10/24 10:24:53;;;;;;;2.42;1.02;;;16.90;89.30;;;;;;5022132;28;20470;-64
2022/10/24 10:27:40;;;;;;;3.28;1.10;;;16.90;89.20;;;;;;5020990;28;20447;-64
2022/10/24 10:30:14;;;;;;;4.70;1.23;;;16.90;89.30;;;;;;5007761;28;20386;-64
2022/10/24 10:32:54;;;;;;;9.65;1.15;;;16.80;89.20;;;;;;4999219;28;20204;-64
2022/10/24 10:35:31;;;;;;;1.15;0.80;;;16.80;89.20;;;;;;5010619;28;20048;-64
2022/10/24 10:38:10;;;;;;;4.32;1.00;;;16.80;89.20;;;;;;5012580;28;20837;-64
2022/10/24 10:40:44;;;;;;;3.67;0.98;;;16.80;89.10;;;;;;5001637;28;20041;-64
2022/10/24 10:43:39;;;;;;;4.90;1.45;;;16.80;89.30;;;;;;5002795;28;20117;-64
2022/10/24 10:46:27;;;;;;;5.90;1.00;;;16.70;89.20;;;;;;4933091;28;20458;-64
2022/10/24 10:49:01;;;;;;;3.30;0.80;;;16.70;89.40;;;;;;5024077;28;20073;-64
2022/10/24 10:51:38;;;;;;;3.67;1.00;;;16.60;89.30;;;;;;5021679;28;20056;-64
2022/10/24 10:54:15;;;;;;;5.07;1.15;;;16.60;89.50;;;;;;5008751;28;20528;-64
2022/10/24 10:56:52;;;;;;;1.58;1.05;;;16.60;89.90;;;;;;5000836;28;20563;-63
2022/10/24 10:59:33;;;;;;;2.85;1.08;;;16.60;90.00;;;;;;5001482;28;20091;-62
2022/10/24 11:02:36;;;;;;;2.90;1.10;;;16.60;90.00;;;;;;4999631;28;20466;-62
2022/10/24 11:05:18;;;;;;;4.53;1.27;;;16.60;90.30;;;;;;5016589;28;20038;-63
2022/10/24 11:08:04;;;;;;;4.55;1.40;;;16.60;90.10;;;;;;5004034;28;20065;-64
2022/10/24 11:10:42;;;;;;;5.22;1.60;;;16.60;90.30;;;;;;5004805;28;20576;-63
2022/10/24 11:13:16;;;;;;;5.65;1.58;;;16.60;90.40;;;;;;5017660;28;20034;-63
2022/10/24 11:15:48;;;;;;;6.90;1.50;;;16.60;90.30;;;;;;5006050;28;20048;-63
2022/10/24 11:18:21;;;;;;;5.53;1.50;;;16.60;90.20;;;;;;5010034;28;20080;-64
2022/10/24 11:20:52;;;;;;;5.25;1.60;;;16.60;90.30;;;;;;5008148;28;20113;-64
2022/10/24 11:23:28;;;;;;;3.28;1.33;;;16.60;90.30;;;;;;5006163;28;20034;-62
2022/10/24 11:26:04;;;;;;;5.00;1.63;;;16.50;90.30;;;;;;5006657;28;20117;-64
2022/10/24 11:28:54;;;;;;;3.67;1.27;;;16.50;90.30;;;;;;5004707;28;20038;-62
2022/10/24 11:31:36;;;;;;;2.97;1.38;;;16.50;90.40;;;;;;5007060;28;20129;-63
2022/10/24 11:34:10;;;;;;;3.08;1.35;;;16.50;90.50;;;;;;5007877;28;20492;-63
2022/10/24 11:36:39;;;;;;;6.45;1.92;;;16.40;90.50;;;;;;5003445;28;20034;-63
2022/10/24 11:39:24;;;;;;;3.15;1.13;;;16.40;90.50;;;;;;5005063;28;20042;-62
2022/10/24 11:42:31;;;;;;;3.00;1.30;;;16.40;90.60;;;;;;5006051;28;20075;-63
2022/10/24 11:45:05;;;;;;;1.95;1.17;;;16.50;90.60;;;;;;5001940;28;20494;-63
2022/10/24 11:47:52;;;;;;;4.70;1.40;;;16.50;90.60;;;;;;5026388;28;20033;-63
2022/10/24 11:50:27;;;;;;;4.10;1.40;;;16.40;90.50;;;;;;5025864;28;20276;-63
2022/10/24 11:53:11;;;;;;;3.05;1.40;;;16.40;90.50;;;;;;5029125;28;20029;-64
2022/10/24 11:55:40;;;;;;;4.18;1.50;;;16.40;90.60;;;;;;5028878;28;20103;-63
2022/10/24 11:58:13;;;;;;;2.63;1.25;;;16.40;90.40;;;;;;5028172;28;20030;-62
2022/10/24 12:01:19;;;;;;;3.28;1.27;;;16.50;90.40;;;;;;5028545;28;20034;-63
2022/10/24 12:04:04;;;;;;;2.35;1.25;;;16.50;90.50;;;;;;5028709;28;20053;-62
2022/10/24 12:07:06;;;;;;;2.53;0.93;;;16.40;90.40;;;;;;5024936;28;20037;-63
2022/10/24 12:09:34;;;;;;;4.30;1.02;;;16.40;90.50;;;;;;5025505;28;20052;-63
2022/10/24 12:12:37;;;;;;;5.30;1.10;;;16.40;90.30;;;;;;5019474;28;20036;-63
2022/10/24 12:15:23;;;;;;;3.90;0.85;;;16.40;90.40;;;;;;5024832;28;20037;-62
2022/10/24 12:18:19;;;;;;;3.65;1.00;;;16.40;90.20;;;;;;5025340;28;20034;-63
2022/10/24 12:20:48;;;;;;;3.67;1.20;;;16.40;90.30;;;;;;5028067;28;20654;-63
2022/10/24 12:23:21;;;;;;;2.83;1.17;;;16.40;90.30;;;;;;5025508;28;20041;-63
2022/10/24 12:26:15;;;;;;;3.10;1.45;;;16.40;90.40;;;;;;5023108;28;20574;-63
2022/10/24 12:28:40;;;;;;;2.30;1.35;;;16.40;90.60;;;;;;5025486;28;20029;-63
2022/10/24 12:31:13;;;;;;;4.40;1.30;;;16.40;90.50;;;;;;5022967;28;20040;-63
2022/10/24 12:33:43;;;;;;;4.20;1.25;;;16.40;90.50;;;;;;5025906;28;20075;-63
2022/10/24 12:36:09;;;;;;;3.13;1.08;;;16.40;90.50;;;;;;5024947;28;20029;-61
2022/10/24 12:38:35;;;;;;;4.70;4.15;;;16.40;90.50;;;;;;5025299;28;20152;-63
2022/10/24 12:41:08;;;;;;;2.65;1.30;;;16.40;90.40;;;;;;5022974;28;20505;-62
2022/10/24 12:43:42;;;;;;;2.20;1.63;;;16.40;90.60;;;;;;5024267;28;20431;-63
2022/10/24 12:46:13;;;;;;;3.13;1.40;;;16.50;90.20;;;;;;5023541;28;20038;-61
2022/10/24 12:48:41;;;;;;;4.38;1.20;;;16.50;90.10;;;;;;5024243;28;20048;-62
2022/10/24 12:51:25;;;;;;;3.33;0.90;;;16.50;90.00;;;;;;5024791;28;20405;-61
2022/10/24 12:54:14;;;;;;;3.30;1.13;;;16.50;89.90;;;;;;5025685;28;20052;-62
2022/10/24 12:56:49;;;;;;;2.95;1.10;;;16.50;89.90;;;;;;5021850;28;20038;-62
2022/10/24 12:59:29;;;;;;;1.83;1.17;;;16.50;89.80;;;;;;5024152;28;20060;-62
2022/10/24 13:02:29;;;;;;;3.05;0.82;;;16.50;89.70;;;;;;5010366;28;20030;-61
2022/10/24 13:05:13;;;;;;;3.25;1.00;;;16.50;89.50;;;;;;4981086;28;20406;-61